sensor_id;sensor_type;location;lat;lon;timestamp;pressure;altitude;pressure_sealevel;temperature;humidity
82311;BME280;72015;51.330;12.316;2023-12-28T00:01:33;99980.53;;;2.34;52.66
82311;BME280;72015;51.330;12.316;2023-12-28T00:05:57;99977.17;;;2.38;52.29
82311;BME280;72015;51.330;12.316;2023-12-28T00:10:22;99974.53;;;2.37;52.36
82311;BME280;72015;51.330;12.316;2023-12-28T00:14:45;99973.54;;;2.36;52.50
82311;BME280;72015;51.330;12.316;2023-12-28T00:19:09;99973.44;;;2.31;52.78
82311;BME280;72015;51.330;12.316;2023-12-28T00:23:33;99972.10;;;2.25;53.01
82311;BME280;72015;51.330;12.316;2023-12-28T00:27:57;99970.36;;;2.23;53.12
82311;BME280;72015;51.330;12.316;2023-12-28T00:32:21;99967.39;;;2.22;52.89
82311;BME280;72015;51.330;12.316;2023-12-28T00:36:45;99963.36;;;2.21;52.97
82311;BME280;72015;51.330;12.316;2023-12-28T00:41:09;99960.08;;;2.25;52.29
82311;BME280;72015;51.330;12.316;2023-12-28T00:45:33;99957.75;;;2.37;50.99
82311;BME280;72015;51.330;12.316;2023-12-28T00:49:57;99956.79;;;2.45;51.36
82311;BME280;72015;51.330;12.316;2023-12-28T00:54:21;99956.84;;;2.55;51.36
82311;BME280;72015;51.330;12.316;2023-12-28T00:58:45;99955.72;;;2.62;50.64
82311;BME280;72015;51.330;12.316;2023-12-28T01:03:09;99953.75;;;2.64;51.37
82311;BME280;72015;51.330;12.316;2023-12-28T01:07:33;99953.74;;;2.59;52.27
82311;BME280;72015;51.330;12.316;2023-12-28T01:11:58;99953.07;;;2.57;52.25
82311;BME280;72015;51.330;12.316;2023-12-28T01:16:21;99955.45;;;2.58;51.85
82311;BME280;72015;51.330;12.316;2023-12-28T01:20:46;99959.91;;;2.59;51.84
82311;BME280;72015;51.330;12.316;2023-12-28T01:25:09;99963.53;;;2.57;51.82
82311;BME280;72015;51.330;12.316;2023-12-28T01:29:33;99965.34;;;2.58;51.43
82311;BME280;72015;51.330;12.316;2023-12-28T01:33:57;99968.97;;;2.62;51.03
82311;BME280;72015;51.330;12.316;2023-12-28T01:38:21;99971.17;;;2.74;49.73
82311;BME280;72015;51.330;12.316;2023-12-28T01:42:45;99972.19;;;2.96;48.10
82311;BME280;72015;51.330;12.316;2023-12-28T01:47:09;99973.61;;;3.16;47.33
82311;BME280;72015;51.330;12.316;2023-12-28T01:51:33;99978.06;;;3.20;47.96
82311;BME280;72015;51.330;12.316;2023-12-28T01:55:57;99979.97;;;3.28;46.95
82311;BME280;72015;51.330;12.316;2023-12-28T02:00:22;99981.03;;;3.25;47.83
82311;BME280;72015;51.330;12.316;2023-12-28T02:04:45;99982.03;;;3.22;47.43
82311;BME280;72015;51.330;12.316;2023-12-28T02:09:09;99984.83;;;3.26;46.40
82311;BME280;72015;51.330;12.316;2023-12-28T02:13:33;99985.32;;;3.28;47.21
82311;BME280;72015;51.330;12.316;2023-12-28T02:18:08;99984.24;;;3.20;47.96
82311;BME280;72015;51.330;12.316;2023-12-28T02:22:23;99983.99;;;3.14;48.16
82311;BME280;72015;51.330;12.316;2023-12-28T02:26:45;99982.83;;;3.04;48.48
82311;BME280;72015;51.330;12.316;2023-12-28T02:31:11;99978.20;;;2.94;48.33
82311;BME280;72015;51.330;12.316;2023-12-28T02:39:57;99966.25;;;2.82;48.19
82311;BME280;72015;51.330;12.316;2023-12-28T02:44:21;99963.37;;;2.85;47.45
82311;BME280;72015;51.330;12.316;2023-12-28T02:48:45;99963.54;;;2.89;47.07
82311;BME280;72015;51.330;12.316;2023-12-28T02:53:09;99963.62;;;2.93;47.19
82311;BME280;72015;51.330;12.316;2023-12-28T02:57:33;99964.62;;;2.94;47.05
82311;BME280;72015;51.330;12.316;2023-12-28T03:01:57;99965.53;;;2.97;46.93
82311;BME280;72015;51.330;12.316;2023-12-28T03:06:21;99966.77;;;3.07;46.04
82311;BME280;72015;51.330;12.316;2023-12-28T03:10:45;99967.60;;;3.13;46.16
82311;BME280;72015;51.330;12.316;2023-12-28T03:15:09;99965.13;;;3.21;45.71
82311;BME280;72015;51.330;12.316;2023-12-28T03:19:33;99963.35;;;3.30;45.26
82311;BME280;72015;51.330;12.316;2023-12-28T03:23:57;99961.94;;;3.45;44.88
82311;BME280;72015;51.330;12.316;2023-12-28T03:28:21;99959.88;;;3.53;45.04
82311;BME280;72015;51.330;12.316;2023-12-28T03:32:45;99958.64;;;3.52;45.77
82311;BME280;72015;51.330;12.316;2023-12-28T03:37:09;99954.52;;;3.57;46.11
82311;BME280;72015;51.330;12.316;2023-12-28T03:41:33;99952.62;;;3.61;46.32
82311;BME280;72015;51.330;12.316;2023-12-28T03:45:57;99953.43;;;3.66;45.90
82311;BME280;72015;51.330;12.316;2023-12-28T03:50:21;99956.72;;;3.68;45.83
82311;BME280;72015;51.330;12.316;2023-12-28T03:54:45;99964.06;;;3.71;45.99
82311;BME280;72015;51.330;12.316;2023-12-28T03:59:09;99970.06;;;3.81;45.39
82311;BME280;72015;51.330;12.316;2023-12-28T04:03:33;99975.83;;;3.95;45.00
82311;BME280;72015;51.330;12.316;2023-12-28T04:07:57;99978.45;;;4.10;45.14
82311;BME280;72015;51.330;12.316;2023-12-28T04:12:21;99981.79;;;4.25;44.69
82311;BME280;72015;51.330;12.316;2023-12-28T04:16:45;99984.73;;;4.33;44.86
82311;BME280;72015;51.330;12.316;2023-12-28T04:21:10;99988.01;;;4.36;45.61
82311;BME280;72015;51.330;12.316;2023-12-28T04:25:33;99991.97;;;4.46;44.87
82311;BME280;72015;51.330;12.316;2023-12-28T04:29:57;99995.60;;;4.63;44.43
82311;BME280;72015;51.330;12.316;2023-12-28T04:34:21;100000.80;;;4.80;43.90
82311;BME280;72015;51.330;12.316;2023-12-28T04:38:45;100005.85;;;4.91;43.84
82311;BME280;72015;51.330;12.316;2023-12-28T04:43:09;100013.25;;;4.97;44.74
82311;BME280;72015;51.330;12.316;2023-12-28T04:47:33;100018.39;;;4.95;45.24
82311;BME280;72015;51.330;12.316;2023-12-28T04:51:57;100026.98;;;4.94;45.75
82311;BME280;72015;51.330;12.316;2023-12-28T04:56:21;100031.42;;;4.97;45.58
82311;BME280;72015;51.330;12.316;2023-12-28T05:00:45;100032.92;;;5.02;45.47
82311;BME280;72015;51.330;12.316;2023-12-28T05:05:11;100038.78;;;5.04;45.85
82311;BME280;72015;51.330;12.316;2023-12-28T05:09:33;100043.89;;;4.98;46.23
82311;BME280;72015;51.330;12.316;2023-12-28T05:13:57;100047.45;;;5.03;46.01
82311;BME280;72015;51.330;12.316;2023-12-28T05:18:21;100052.72;;;5.06;46.14
82311;BME280;72015;51.330;12.316;2023-12-28T05:22:45;100055.41;;;5.12;46.41
82311;BME280;72015;51.330;12.316;2023-12-28T05:27:09;100057.87;;;5.16;46.62
82311;BME280;72015;51.330;12.316;2023-12-28T05:31:33;100064.08;;;5.15;47.68
82311;BME280;72015;51.330;12.316;2023-12-28T05:35:57;100071.53;;;5.12;48.18
82311;BME280;72015;51.330;12.316;2023-12-28T05:40:21;100076.93;;;5.19;47.68
82311;BME280;72015;51.330;12.316;2023-12-28T05:44:45;100078.97;;;5.24;47.64
82311;BME280;72015;51.330;12.316;2023-12-28T05:49:09;100082.81;;;5.31;47.53
82311;BME280;72015;51.330;12.316;2023-12-28T05:53:33;100088.47;;;5.40;47.83
82311;BME280;72015;51.330;12.316;2023-12-28T05:57:57;100093.20;;;5.34;49.95
82311;BME280;72015;51.330;12.316;2023-12-28T06:02:21;100103.39;;;5.31;49.35
82311;BME280;72015;51.330;12.316;2023-12-28T06:06:45;100111.77;;;5.27;50.21
82311;BME280;72015;51.330;12.316;2023-12-28T06:11:09;100118.03;;;5.31;49.23
82311;BME280;72015;51.330;12.316;2023-12-28T06:15:33;100119.06;;;5.38;49.50
82311;BME280;72015;51.330;12.316;2023-12-28T06:19:57;100117.53;;;5.32;51.29
82311;BME280;72015;51.330;12.316;2023-12-28T06:24:21;100114.71;;;5.18;52.66
82311;BME280;72015;51.330;12.316;2023-12-28T06:28:45;100112.21;;;5.06;52.76
82311;BME280;72015;51.330;12.316;2023-12-28T06:33:09;100114.36;;;5.06;52.22
82311;BME280;72015;51.330;12.316;2023-12-28T06:37:33;100114.03;;;5.07;51.83
82311;BME280;72015;51.330;12.316;2023-12-28T06:41:57;100114.69;;;5.07;52.71
82311;BME280;72015;51.330;12.316;2023-12-28T06:46:21;100115.83;;;5.09;51.89
82311;BME280;72015;51.330;12.316;2023-12-28T06:50:45;100117.69;;;4.94;54.13
82311;BME280;72015;51.330;12.316;2023-12-28T06:55:09;100117.86;;;4.91;53.96
82311;BME280;72015;51.330;12.316;2023-12-28T06:59:33;100119.59;;;4.91;53.97
82311;BME280;72015;51.330;12.316;2023-12-28T07:03:57;100119.60;;;4.90;53.51
82311;BME280;72015;51.330;12.316;2023-12-28T07:08:21;100122.13;;;4.99;53.09
82311;BME280;72015;51.330;12.316;2023-12-28T07:12:45;100123.03;;;5.00;54.06
82311;BME280;72015;51.330;12.316;2023-12-28T07:17:09;100120.73;;;4.96;55.74
82311;BME280;72015;51.330;12.316;2023-12-28T07:21:33;100119.58;;;4.96;55.50
82311;BME280;72015;51.330;12.316;2023-12-28T07:25:57;100120.59;;;4.92;56.67
82311;BME280;72015;51.330;12.316;2023-12-28T07:30:21;100123.25;;;4.87;57.11
82311;BME280;72015;51.330;12.316;2023-12-28T07:34:45;100122.96;;;4.78;57.66
82311;BME280;72015;51.330;12.316;2023-12-28T07:39:09;100120.25;;;4.73;57.00
82311;BME280;72015;51.330;12.316;2023-12-28T07:43:33;100119.92;;;4.72;57.28
82311;BME280;72015;51.330;12.316;2023-12-28T07:47:59;100119.31;;;4.57;58.23
82311;BME280;72015;51.330;12.316;2023-12-28T07:52:21;100122.28;;;4.55;57.15
82311;BME280;72015;51.330;12.316;2023-12-28T07:56:45;100125.18;;;4.52;57.65
82311;BME280;72015;51.330;12.316;2023-12-28T08:01:10;100128.81;;;4.41;58.15
82311;BME280;72015;51.330;12.316;2023-12-28T08:05:33;100133.45;;;4.28;57.74
82311;BME280;72015;51.330;12.316;2023-12-28T08:09:57;100136.02;;;4.21;57.13
82311;BME280;72015;51.330;12.316;2023-12-28T08:14:21;100136.11;;;4.14;57.65
82311;BME280;72015;51.330;12.316;2023-12-28T08:18:45;100137.23;;;4.07;57.64
82311;BME280;72015;51.330;12.316;2023-12-28T08:23:09;100138.06;;;4.00;58.38
82311;BME280;72015;51.330;12.316;2023-12-28T08:27:33;100141.03;;;3.96;58.35
82311;BME280;72015;51.330;12.316;2023-12-28T08:31:57;100143.75;;;4.04;56.89
82311;BME280;72015;51.330;12.316;2023-12-28T08:36:21;100149.19;;;4.05;57.73
82311;BME280;72015;51.330;12.316;2023-12-28T08:40:45;100154.72;;;4.04;57.44
82311;BME280;72015;51.330;12.316;2023-12-28T08:45:09;100159.78;;;4.11;57.01
82311;BME280;72015;51.330;12.316;2023-12-28T08:49:33;100165.31;;;4.21;56.66
82311;BME280;72015;51.330;12.316;2023-12-28T08:53:57;100172.32;;;4.26;56.90
82311;BME280;72015;51.330;12.316;2023-12-28T08:58:21;100177.92;;;4.29;56.65
82311;BME280;72015;51.330;12.316;2023-12-28T09:02:45;100182.47;;;4.27;57.28
82311;BME280;72015;51.330;12.316;2023-12-28T09:07:09;100188.50;;;4.20;57.96
82311;BME280;72015;51.330;12.316;2023-12-28T09:11:33;100194.59;;;4.12;58.35
82311;BME280;72015;51.330;12.316;2023-12-28T09:15:57;100201.40;;;4.01;58.74
82311;BME280;72015;51.330;12.316;2023-12-28T09:20:21;100207.34;;;3.94;59.00
82311;BME280;72015;51.330;12.316;2023-12-28T09:24:45;100212.20;;;3.95;58.65
82311;BME280;72015;51.330;12.316;2023-12-28T09:29:09;100215.42;;;3.95;58.82
82311;BME280;72015;51.330;12.316;2023-12-28T09:33:33;100213.12;;;4.01;58.34
82311;BME280;72015;51.330;12.316;2023-12-28T09:37:57;100212.26;;;4.15;56.78
82311;BME280;72015;51.330;12.316;2023-12-28T09:42:25;100210.94;;;4.34;55.97
82311;BME280;72015;51.330;12.316;2023-12-28T09:46:45;100209.12;;;4.43;56.61
82311;BME280;72015;51.330;12.316;2023-12-28T09:51:10;100206.75;;;4.48;57.67
82311;BME280;72015;51.330;12.316;2023-12-28T09:55:33;100203.86;;;4.45;57.94
82311;BME280;72015;51.330;12.316;2023-12-28T09:59:57;100200.78;;;4.39;58.85
82311;BME280;72015;51.330;12.316;2023-12-28T10:04:21;100198.97;;;4.31;59.16
82311;BME280;72015;51.330;12.316;2023-12-28T10:08:45;100196.17;;;4.20;60.38
82311;BME280;72015;51.330;12.316;2023-12-28T10:13:10;100195.01;;;4.13;59.41
82311;BME280;72015;51.330;12.316;2023-12-28T10:17:33;100192.86;;;4.15;58.90
82311;BME280;72015;51.330;12.316;2023-12-28T10:21:58;100192.21;;;4.13;59.38
82311;BME280;72015;51.330;12.316;2023-12-28T10:26:21;100188.62;;;4.04;59.63
82311;BME280;72015;51.330;12.316;2023-12-28T10:30:45;100185.91;;;4.07;58.86
82311;BME280;72015;51.330;12.316;2023-12-28T10:35:09;100186.89;;;4.06;59.29
82311;BME280;72015;51.330;12.316;2023-12-28T10:39:33;100191.43;;;4.04;59.53
82311;BME280;72015;51.330;12.316;2023-12-28T10:48:29;100202.60;;;4.11;58.06
82311;BME280;72015;51.330;12.316;2023-12-28T10:52:45;100206.56;;;4.26;57.41
82311;BME280;72015;51.330;12.316;2023-12-28T10:57:12;100212.66;;;4.42;56.19
82311;BME280;72015;51.330;12.316;2023-12-28T11:01:35;100217.97;;;4.53;56.59
82311;BME280;72015;51.330;12.316;2023-12-28T11:05:57;100220.61;;;4.58;56.97
82311;BME280;72015;51.330;12.316;2023-12-28T11:10:22;100216.72;;;4.59;57.40
82311;BME280;72015;51.330;12.316;2023-12-28T11:14:45;100213.73;;;4.70;56.53
82311;BME280;72015;51.330;12.316;2023-12-28T11:19:09;100213.29;;;4.86;55.32
82311;BME280;72015;51.330;12.316;2023-12-28T11:23:33;100214.67;;;5.07;53.48
82311;BME280;72015;51.330;12.316;2023-12-28T11:27:57;100215.61;;;5.19;53.85
82311;BME280;72015;51.330;12.316;2023-12-28T11:32:21;100215.91;;;5.46;51.90
82311;BME280;72015;51.330;12.316;2023-12-28T11:36:52;100212.64;;;5.66;52.68
82311;BME280;72015;51.330;12.316;2023-12-28T11:41:09;100211.99;;;5.78;53.38
82311;BME280;72015;51.330;12.316;2023-12-28T11:45:33;100210.08;;;5.91;52.22
82311;BME280;72015;51.330;12.316;2023-12-28T11:50:05;100206.73;;;6.08;52.01
82311;BME280;72015;51.330;12.316;2023-12-28T11:54:21;100201.73;;;6.28;51.00
82311;BME280;72015;51.330;12.316;2023-12-28T11:58:45;100197.64;;;6.49;50.12
82311;BME280;72015;51.330;12.316;2023-12-28T12:03:10;100195.51;;;6.55;51.38
82311;BME280;72015;51.330;12.316;2023-12-28T12:07:33;100195.04;;;6.53;52.26
82311;BME280;72015;51.330;12.316;2023-12-28T12:11:57;100194.37;;;6.84;48.48
82311;BME280;72015;51.330;12.316;2023-12-28T12:16:21;100195.58;;;7.23;46.48
82311;BME280;72015;51.330;12.316;2023-12-28T12:20:45;100197.38;;;7.65;46.22
82311;BME280;72015;51.330;12.316;2023-12-28T12:25:09;100196.56;;;8.12;44.21
82311;BME280;72015;51.330;12.316;2023-12-28T12:29:33;100194.09;;;8.92;40.31
82311;BME280;72015;51.330;12.316;2023-12-28T12:33:57;100190.66;;;9.80;38.52
82311;BME280;72015;51.330;12.316;2023-12-28T12:38:21;100184.59;;;10.43;39.21
82311;BME280;72015;51.330;12.316;2023-12-28T12:47:09;100174.04;;;11.08;40.31
82311;BME280;72015;51.330;12.316;2023-12-28T12:51:33;100167.02;;;11.03;41.58
82311;BME280;72015;51.330;12.316;2023-12-28T12:55:57;100160.50;;;10.85;42.88
82311;BME280;72015;51.330;12.316;2023-12-28T13:00:21;100155.63;;;10.45;44.07
82311;BME280;72015;51.330;12.316;2023-12-28T13:04:45;100148.49;;;10.00;45.93
82311;BME280;72015;51.330;12.316;2023-12-28T13:09:09;100144.02;;;9.58;46.60
82311;BME280;72015;51.330;12.316;2023-12-28T13:13:34;100138.82;;;9.26;46.98
82311;BME280;72015;51.330;12.316;2023-12-28T13:17:58;100137.77;;;8.90;47.92
82311;BME280;72015;51.330;12.316;2023-12-28T13:22:22;100135.29;;;8.51;49.94
82311;BME280;72015;51.330;12.316;2023-12-28T13:26:46;100133.67;;;8.19;48.80
82311;BME280;72015;51.330;12.316;2023-12-28T13:31:10;100132.43;;;8.04;48.11
82311;BME280;72015;51.330;12.316;2023-12-28T13:35:34;100130.13;;;8.07;46.51
82311;BME280;72015;51.330;12.316;2023-12-28T13:39:58;100126.46;;;8.18;46.29
82311;BME280;72015;51.330;12.316;2023-12-28T13:44:22;100123.66;;;8.35;45.51
82311;BME280;72015;51.330;12.316;2023-12-28T13:48:46;100122.49;;;8.51;44.70
82311;BME280;72015;51.330;12.316;2023-12-28T13:53:10;100120.84;;;8.63;44.69
82311;BME280;72015;51.330;12.316;2023-12-28T13:57:34;100118.57;;;8.73;45.39
82311;BME280;72015;51.330;12.316;2023-12-28T14:01:58;100116.33;;;8.73;45.43
82311;BME280;72015;51.330;12.316;2023-12-28T14:06:22;100114.03;;;8.71;45.83
82311;BME280;72015;51.330;12.316;2023-12-28T14:10:46;100114.31;;;8.42;48.00
82311;BME280;72015;51.330;12.316;2023-12-28T14:15:10;100114.26;;;8.13;48.09
82311;BME280;72015;51.330;12.316;2023-12-28T14:19:34;100110.82;;;8.01;47.00
82311;BME280;72015;51.330;12.316;2023-12-28T14:23:58;100110.31;;;7.91;47.93
82311;BME280;72015;51.330;12.316;2023-12-28T14:28:22;100113.42;;;7.75;49.00
82311;BME280;72015;51.330;12.316;2023-12-28T14:32:46;100113.43;;;7.53;49.66
82311;BME280;72015;51.330;12.316;2023-12-28T14:37:10;100112.94;;;7.33;49.90
82311;BME280;72015;51.330;12.316;2023-12-28T14:41:34;100112.44;;;7.09;50.40
82311;BME280;72015;51.330;12.316;2023-12-28T14:45:58;100113.75;;;6.91;50.91
82311;BME280;72015;51.330;12.316;2023-12-28T14:50:22;100116.35;;;6.82;50.20
82311;BME280;72015;51.330;12.316;2023-12-28T14:54:46;100117.35;;;6.68;50.43
82311;BME280;72015;51.330;12.316;2023-12-28T14:59:10;100117.19;;;6.53;50.88
82311;BME280;72015;51.330;12.316;2023-12-28T15:03:34;100115.23;;;6.50;49.89
82311;BME280;72015;51.330;12.316;2023-12-28T15:07:58;100112.35;;;6.49;49.88
82311;BME280;72015;51.330;12.316;2023-12-28T15:12:22;100108.84;;;6.43;50.64
82311;BME280;72015;51.330;12.316;2023-12-28T15:16:46;100105.58;;;6.40;50.57
82311;BME280;72015;51.330;12.316;2023-12-28T15:21:10;100103.12;;;6.28;51.07
82311;BME280;72015;51.330;12.316;2023-12-28T15:25:34;100101.56;;;6.19;51.54
82311;BME280;72015;51.330;12.316;2023-12-28T15:29:58;100100.09;;;6.14;51.54
82311;BME280;72015;51.330;12.316;2023-12-28T15:34:22;100098.44;;;6.04;51.21
82311;BME280;72015;51.330;12.316;2023-12-28T15:38:46;100096.06;;;6.02;51.61
82311;BME280;72015;51.330;12.316;2023-12-28T15:43:10;100094.39;;;5.95;51.99
82311;BME280;72015;51.330;12.316;2023-12-28T15:47:34;100092.85;;;5.92;51.75
82311;BME280;72015;51.330;12.316;2023-12-28T15:51:58;100090.16;;;5.86;52.60
82311;BME280;72015;51.330;12.316;2023-12-28T15:56:23;100087.28;;;5.74;53.29
82311;BME280;72015;51.330;12.316;2023-12-28T16:00:47;100085.74;;;5.61;53.82
82311;BME280;72015;51.330;12.316;2023-12-28T16:05:11;100086.30;;;5.47;53.91
82311;BME280;72015;51.330;12.316;2023-12-28T16:09:35;100088.64;;;5.37;53.06
82311;BME280;72015;51.330;12.316;2023-12-28T16:13:59;100089.04;;;5.27;53.20
82311;BME280;72015;51.330;12.316;2023-12-28T16:18:23;100089.86;;;5.28;52.53
82311;BME280;72015;51.330;12.316;2023-12-28T16:22:47;100091.38;;;5.23;52.77
82311;BME280;72015;51.330;12.316;2023-12-28T16:27:11;100092.02;;;5.26;52.47
82311;BME280;72015;51.330;12.316;2023-12-28T16:31:35;100093.00;;;5.27;52.89
82311;BME280;72015;51.330;12.316;2023-12-28T16:35:59;100092.71;;;5.34;51.60
82311;BME280;72015;51.330;12.316;2023-12-28T16:40:23;100091.94;;;5.40;52.10
82311;BME280;72015;51.330;12.316;2023-12-28T16:44:47;100091.49;;;5.44;51.31
82311;BME280;72015;51.330;12.316;2023-12-28T16:49:11;100092.02;;;5.40;51.82
82311;BME280;72015;51.330;12.316;2023-12-28T16:53:35;100093.88;;;5.45;50.87
82311;BME280;72015;51.330;12.316;2023-12-28T16:57:59;100094.81;;;5.43;51.80
82311;BME280;72015;51.330;12.316;2023-12-28T17:02:23;100097.38;;;5.42;51.83
82311;BME280;72015;51.330;12.316;2023-12-28T17:06:47;100101.40;;;5.33;52.69
82311;BME280;72015;51.330;12.316;2023-12-28T17:11:11;100101.79;;;5.23;52.73
82311;BME280;72015;51.330;12.316;2023-12-28T17:15:35;100100.30;;;5.10;53.35
82311;BME280;72015;51.330;12.316;2023-12-28T17:19:59;100100.14;;;5.00;53.96
82311;BME280;72015;51.330;12.316;2023-12-28T17:24:23;100101.05;;;4.83;54.71
82311;BME280;72015;51.330;12.316;2023-12-28T17:33:14;100100.39;;;4.58;54.75
82311;BME280;72015;51.330;12.316;2023-12-28T17:37:35;100099.94;;;4.45;55.59
82311;BME280;72015;51.330;12.316;2023-12-28T17:41:59;100097.61;;;4.39;54.85
82311;BME280;72015;51.330;12.316;2023-12-28T17:50:47;100092.13;;;4.21;56.01
82311;BME280;72015;51.330;12.316;2023-12-28T17:55:11;100089.82;;;4.12;55.79
82311;BME280;72015;51.330;12.316;2023-12-28T17:59:35;100090.55;;;4.05;55.46
82311;BME280;72015;51.330;12.316;2023-12-28T18:03:59;100091.31;;;4.11;54.60
82311;BME280;72015;51.330;12.316;2023-12-28T18:08:23;100092.55;;;4.13;54.89
82311;BME280;72015;51.330;12.316;2023-12-28T18:12:47;100094.34;;;4.24;53.56
82311;BME280;72015;51.330;12.316;2023-12-28T18:17:11;100094.81;;;4.38;53.59
82311;BME280;72015;51.330;12.316;2023-12-28T18:21:35;100096.06;;;4.46;53.64
82311;BME280;72015;51.330;12.316;2023-12-28T18:25:59;100095.20;;;4.55;53.76
82311;BME280;72015;51.330;12.316;2023-12-28T18:30:23;100096.02;;;4.58;53.73
82311;BME280;72015;51.330;12.316;2023-12-28T18:34:47;100095.28;;;4.57;54.42
82311;BME280;72015;51.330;12.316;2023-12-28T18:39:11;100093.28;;;4.61;53.91
82311;BME280;72015;51.330;12.316;2023-12-28T18:43:35;100091.05;;;4.62;54.08
82311;BME280;72015;51.330;12.316;2023-12-28T18:47:59;100089.64;;;4.63;54.70
82311;BME280;72015;51.330;12.316;2023-12-28T18:52:24;100087.20;;;4.55;55.41
82311;BME280;72015;51.330;12.316;2023-12-28T18:56:48;100084.97;;;4.42;56.39
82311;BME280;72015;51.330;12.316;2023-12-28T19:01:12;100081.95;;;4.31;56.78
82311;BME280;72015;51.330;12.316;2023-12-28T19:05:36;100080.24;;;4.18;56.61
82311;BME280;72015;51.330;12.316;2023-12-28T19:10:00;100078.26;;;4.19;55.42
82311;BME280;72015;51.330;12.316;2023-12-28T19:14:24;100077.66;;;4.29;54.50
82311;BME280;72015;51.330;12.316;2023-12-28T19:18:49;100076.42;;;4.30;55.43
82311;BME280;72015;51.330;12.316;2023-12-28T19:23:12;100075.83;;;4.36;54.83
82311;BME280;72015;51.330;12.316;2023-12-28T19:27:36;100072.93;;;4.40;55.09
82311;BME280;72015;51.330;12.316;2023-12-28T19:32:00;100071.20;;;4.48;54.53
82311;BME280;72015;51.330;12.316;2023-12-28T19:36:24;100068.56;;;4.49;55.56
82311;BME280;72015;51.330;12.316;2023-12-28T19:40:48;100067.80;;;4.54;54.89
82311;BME280;72015;51.330;12.316;2023-12-28T19:45:12;100065.37;;;4.62;54.40
82311;BME280;72015;51.330;12.316;2023-12-28T19:49:36;100062.27;;;4.75;53.17
82311;BME280;72015;51.330;12.316;2023-12-28T19:54:00;100060.88;;;4.90;52.93
82311;BME280;72015;51.330;12.316;2023-12-28T19:58:24;100058.95;;;4.95;53.81
82311;BME280;72015;51.330;12.316;2023-12-28T20:02:48;100059.36;;;4.95;54.58
82311;BME280;72015;51.330;12.316;2023-12-28T20:07:12;100058.39;;;4.90;55.15
82311;BME280;72015;51.330;12.316;2023-12-28T20:11:36;100056.30;;;4.79;56.00
82311;BME280;72015;51.330;12.316;2023-12-28T20:16:00;100054.80;;;4.63;56.74
82311;BME280;72015;51.330;12.316;2023-12-28T20:20:24;100051.95;;;4.52;56.88
82311;BME280;72015;51.330;12.316;2023-12-28T20:24:48;100051.20;;;4.55;55.05
82311;BME280;72015;51.330;12.316;2023-12-28T20:29:12;100050.35;;;4.60;54.69
82311;BME280;72015;51.330;12.316;2023-12-28T20:33:36;100048.67;;;4.67;54.88
82311;BME280;72015;51.330;12.316;2023-12-28T20:38:00;100048.79;;;4.60;55.76
82311;BME280;72015;51.330;12.316;2023-12-28T20:42:24;100048.07;;;4.57;55.58
82311;BME280;72015;51.330;12.316;2023-12-28T20:46:48;100046.92;;;4.51;55.43
82311;BME280;72015;51.330;12.316;2023-12-28T20:51:12;100046.00;;;4.55;55.46
82311;BME280;72015;51.330;12.316;2023-12-28T20:55:36;100046.34;;;4.53;55.56
82311;BME280;72015;51.330;12.316;2023-12-28T21:00:00;100049.05;;;4.56;54.72
82311;BME280;72015;51.330;12.316;2023-12-28T21:04:24;100050.70;;;4.58;55.21
82311;BME280;72015;51.330;12.316;2023-12-28T21:08:48;100054.49;;;4.61;54.35
82311;BME280;72015;51.330;12.316;2023-12-28T21:13:12;100058.59;;;4.66;53.73
82311;BME280;72015;51.330;12.316;2023-12-28T21:17:36;100061.21;;;4.72;53.88
82311;BME280;72015;51.330;12.316;2023-12-28T21:22:01;100061.03;;;4.73;54.56
82311;BME280;72015;51.330;12.316;2023-12-28T21:26:25;100061.44;;;4.74;53.79
82311;BME280;72015;51.330;12.316;2023-12-28T21:30:49;100060.63;;;4.73;54.29
82311;BME280;72015;51.330;12.316;2023-12-28T21:35:13;100059.47;;;4.73;53.91
82311;BME280;72015;51.330;12.316;2023-12-28T21:39:38;100058.09;;;4.67;54.68
82311;BME280;72015;51.330;12.316;2023-12-28T21:44:01;100056.22;;;4.59;55.25
82311;BME280;72015;51.330;12.316;2023-12-28T21:48:25;100055.66;;;4.55;54.76
82311;BME280;72015;51.330;12.316;2023-12-28T21:52:49;100055.75;;;4.52;55.08
82311;BME280;72015;51.330;12.316;2023-12-28T21:57:13;100053.62;;;4.39;56.38
82311;BME280;72015;51.330;12.316;2023-12-28T22:01:37;100050.92;;;4.32;55.58
82311;BME280;72015;51.330;12.316;2023-12-28T22:06:01;100051.06;;;4.37;54.57
82311;BME280;72015;51.330;12.316;2023-12-28T22:10:25;100047.92;;;4.39;54.27
82311;BME280;72015;51.330;12.316;2023-12-28T22:14:49;100043.89;;;4.45;53.62
82311;BME280;72015;51.330;12.316;2023-12-28T22:19:13;100042.24;;;4.46;54.65
82311;BME280;72015;51.330;12.316;2023-12-28T22:23:37;100037.03;;;4.39;54.79
82311;BME280;72015;51.330;12.316;2023-12-28T22:28:01;100032.33;;;4.37;54.67
82311;BME280;72015;51.330;12.316;2023-12-28T22:32:25;100029.85;;;4.40;53.71
82311;BME280;72015;51.330;12.316;2023-12-28T22:36:49;100026.95;;;4.43;53.97
82311;BME280;72015;51.330;12.316;2023-12-28T22:41:13;100023.41;;;4.48;53.37
82311;BME280;72015;51.330;12.316;2023-12-28T22:45:37;100018.78;;;4.48;54.76
82311;BME280;72015;51.330;12.316;2023-12-28T22:50:01;100016.56;;;4.46;54.29
82311;BME280;72015;51.330;12.316;2023-12-28T22:54:25;100011.45;;;4.36;55.94
82311;BME280;72015;51.330;12.316;2023-12-28T22:58:49;100006.59;;;4.32;55.19
82311;BME280;72015;51.330;12.316;2023-12-28T23:03:13;100002.38;;;4.35;54.33
82311;BME280;72015;51.330;12.316;2023-12-28T23:07:37;99998.19;;;4.30;55.08
82311;BME280;72015;51.330;12.316;2023-12-28T23:12:01;99993.45;;;4.17;56.45
82311;BME280;72015;51.330;12.316;2023-12-28T23:16:25;99985.71;;;4.03;56.77
82311;BME280;72015;51.330;12.316;2023-12-28T23:20:49;99977.40;;;3.93;56.64
82311;BME280;72015;51.330;12.316;2023-12-28T23:25:13;99971.14;;;3.87;56.06